sensor_id;sensor_type;location;lat;lon;timestamp;P1;durP1;ratioP1;P2;durP2;ratioP2
27313;SDS011;14800;48.174;9.798;2022-12-17T00:00:09;28.73;;;16.55;;
27313;SDS011;14800;48.174;9.798;2022-12-17T00:02:57;26.63;;;14.82;;
27313;SDS011;14800;48.174;9.798;2022-12-17T00:05:42;26.13;;;14.73;;
27313;SDS011;14800;48.174;9.798;2022-12-17T00:08:26;25.08;;;14.85;;
27313;SDS011;14800;48.174;9.798;2022-12-17T00:11:10;21.23;;;13.30;;
27313;SDS011;14800;48.174;9.798;2022-12-17T00:13:54;25.30;;;14.15;;
27313;SDS011;14800;48.174;9.798;2022-12-17T00:16:39;27.80;;;15.05;;
27313;SDS011;14800;48.174;9.798;2022-12-17T00:19:23;28.20;;;15.00;;
27313;SDS011;14800;48.174;9.798;2022-12-17T00:22:07;26.58;;;14.40;;
27313;SDS011;14800;48.174;9.798;2022-12-17T00:24:52;25.73;;;13.48;;
27313;SDS011;14800;48.174;9.798;2022-12-17T00:27:36;25.73;;;14.73;;
27313;SDS011;14800;48.174;9.798;2022-12-17T00:30:20;28.05;;;15.10;;
27313;SDS011;14800;48.174;9.798;2022-12-17T00:33:04;18.30;;;10.38;;
27313;SDS011;14800;48.174;9.798;2022-12-17T00:35:49;28.05;;;14.63;;
27313;SDS011;14800;48.174;9.798;2022-12-17T00:38:37;27.50;;;14.45;;
27313;SDS011;14800;48.174;9.798;2022-12-17T00:41:22;28.80;;;15.23;;
27313;SDS011;14800;48.174;9.798;2022-12-17T00:44:06;26.23;;;14.52;;
27313;SDS011;14800;48.174;9.798;2022-12-17T00:46:51;26.83;;;14.98;;
27313;SDS011;14800;48.174;9.798;2022-12-17T00:49:35;23.88;;;13.63;;
27313;SDS011;14800;48.174;9.798;2022-12-17T00:52:19;28.80;;;15.10;;
27313;SDS011;14800;48.174;9.798;2022-12-17T00:55:04;25.63;;;13.90;;
27313;SDS011;14800;48.174;9.798;2022-12-17T00:57:54;28.20;;;14.40;;
27313;SDS011;14800;48.174;9.798;2022-12-17T01:00:39;26.98;;;14.13;;
27313;SDS011;14800;48.174;9.798;2022-12-17T01:06:08;25.02;;;14.10;;
27313;SDS011;14800;48.174;9.798;2022-12-17T01:08:53;25.15;;;13.70;;
27313;SDS011;14800;48.174;9.798;2022-12-17T01:11:38;24.98;;;13.80;;
27313;SDS011;14800;48.174;9.798;2022-12-17T01:14:23;25.67;;;13.48;;
27313;SDS011;14800;48.174;9.798;2022-12-17T01:17:07;30.58;;;15.73;;
27313;SDS011;14800;48.174;9.798;2022-12-17T01:19:51;32.30;;;16.52;;
27313;SDS011;14800;48.174;9.798;2022-12-17T01:22:36;38.30;;;18.58;;
27313;SDS011;14800;48.174;9.798;2022-12-17T01:25:20;37.63;;;18.70;;
27313;SDS011;14800;48.174;9.798;2022-12-17T01:28:04;36.25;;;18.40;;
27313;SDS011;14800;48.174;9.798;2022-12-17T01:30:48;37.47;;;17.88;;
27313;SDS011;14800;48.174;9.798;2022-12-17T01:33:32;34.20;;;17.35;;
27313;SDS011;14800;48.174;9.798;2022-12-17T01:36:17;31.67;;;16.48;;
27313;SDS011;14800;48.174;9.798;2022-12-17T01:39:02;29.90;;;16.20;;
27313;SDS011;14800;48.174;9.798;2022-12-17T01:41:46;28.75;;;16.13;;
27313;SDS011;14800;48.174;9.798;2022-12-17T01:47:47;26.33;;;15.10;;
27313;SDS011;14800;48.174;9.798;2022-12-17T01:50:33;26.33;;;15.02;;
27313;SDS011;14800;48.174;9.798;2022-12-17T01:53:21;28.75;;;14.88;;
27313;SDS011;14800;48.174;9.798;2022-12-17T01:56:08;27.38;;;14.93;;
27313;SDS011;14800;48.174;9.798;2022-12-17T01:58:53;25.73;;;14.27;;
27313;SDS011;14800;48.174;9.798;2022-12-17T02:01:37;28.95;;;14.80;;
27313;SDS011;14800;48.174;9.798;2022-12-17T02:04:22;25.20;;;14.18;;
27313;SDS011;14800;48.174;9.798;2022-12-17T02:13:18;26.30;;;14.95;;
27313;SDS011;14800;48.174;9.798;2022-12-17T02:25:57;27.77;;;13.63;;
27313;SDS011;14800;48.174;9.798;2022-12-17T02:28:40;25.80;;;13.90;;
27313;SDS011;14800;48.174;9.798;2022-12-17T02:31:29;25.38;;;13.50;;
27313;SDS011;14800;48.174;9.798;2022-12-17T02:36:57;23.77;;;13.38;;
27313;SDS011;14800;48.174;9.798;2022-12-17T02:39:41;24.73;;;13.63;;
27313;SDS011;14800;48.174;9.798;2022-12-17T02:42:26;26.00;;;13.45;;
27313;SDS011;14800;48.174;9.798;2022-12-17T02:45:13;26.17;;;14.40;;
27313;SDS011;14800;48.174;9.798;2022-12-17T02:47:58;24.65;;;13.82;;
27313;SDS011;14800;48.174;9.798;2022-12-17T02:50:44;27.50;;;14.40;;
27313;SDS011;14800;48.174;9.798;2022-12-17T02:56:14;26.23;;;14.52;;
27313;SDS011;14800;48.174;9.798;2022-12-17T02:58:59;31.45;;;15.60;;
27313;SDS011;14800;48.174;9.798;2022-12-17T03:01:43;29.33;;;13.25;;
27313;SDS011;14800;48.174;9.798;2022-12-17T03:04:27;27.75;;;15.23;;
27313;SDS011;14800;48.174;9.798;2022-12-17T03:07:11;31.38;;;15.68;;
27313;SDS011;14800;48.174;9.798;2022-12-17T03:09:56;34.25;;;15.23;;
27313;SDS011;14800;48.174;9.798;2022-12-17T03:12:40;27.77;;;14.80;;
27313;SDS011;14800;48.174;9.798;2022-12-17T03:15:24;30.60;;;14.63;;
27313;SDS011;14800;48.174;9.798;2022-12-17T03:18:09;29.23;;;15.00;;
27313;SDS011;14800;48.174;9.798;2022-12-17T03:20:53;29.15;;;14.77;;
27313;SDS011;14800;48.174;9.798;2022-12-17T03:23:38;26.45;;;14.30;;
27313;SDS011;14800;48.174;9.798;2022-12-17T03:26:30;28.85;;;14.07;;
27313;SDS011;14800;48.174;9.798;2022-12-17T03:29:14;25.20;;;13.77;;
27313;SDS011;14800;48.174;9.798;2022-12-17T03:31:58;25.52;;;13.77;;
27313;SDS011;14800;48.174;9.798;2022-12-17T03:34:43;25.33;;;13.45;;
27313;SDS011;14800;48.174;9.798;2022-12-17T03:37:27;26.25;;;14.25;;
27313;SDS011;14800;48.174;9.798;2022-12-17T03:40:11;27.60;;;14.40;;
27313;SDS011;14800;48.174;9.798;2022-12-17T03:42:55;27.58;;;13.85;;
27313;SDS011;14800;48.174;9.798;2022-12-17T03:45:40;26.98;;;14.98;;
27313;SDS011;14800;48.174;9.798;2022-12-17T03:48:24;24.20;;;13.75;;
27313;SDS011;14800;48.174;9.798;2022-12-17T03:51:08;25.05;;;13.30;;
27313;SDS011;14800;48.174;9.798;2022-12-17T03:53:52;24.40;;;13.70;;
27313;SDS011;14800;48.174;9.798;2022-12-17T03:56:37;23.42;;;13.02;;
27313;SDS011;14800;48.174;9.798;2022-12-17T03:59:21;25.13;;;13.93;;
27313;SDS011;14800;48.174;9.798;2022-12-17T04:02:05;24.80;;;12.45;;
27313;SDS011;14800;48.174;9.798;2022-12-17T04:04:49;26.83;;;13.63;;
27313;SDS011;14800;48.174;9.798;2022-12-17T04:07:34;25.33;;;13.55;;
27313;SDS011;14800;48.174;9.798;2022-12-17T04:10:18;24.30;;;13.18;;
27313;SDS011;14800;48.174;9.798;2022-12-17T04:13:02;24.88;;;13.57;;
27313;SDS011;14800;48.174;9.798;2022-12-17T04:15:46;28.00;;;14.25;;
27313;SDS011;14800;48.174;9.798;2022-12-17T04:18:30;27.05;;;12.80;;
27313;SDS011;14800;48.174;9.798;2022-12-17T04:21:15;23.10;;;13.82;;
27313;SDS011;14800;48.174;9.798;2022-12-17T04:23:59;27.75;;;14.10;;
27313;SDS011;14800;48.174;9.798;2022-12-17T04:26:43;23.95;;;12.85;;
27313;SDS011;14800;48.174;9.798;2022-12-17T04:29:27;30.48;;;14.02;;
27313;SDS011;14800;48.174;9.798;2022-12-17T04:32:12;29.42;;;13.68;;
27313;SDS011;14800;48.174;9.798;2022-12-17T04:34:56;25.95;;;13.10;;
27313;SDS011;14800;48.174;9.798;2022-12-17T04:37:40;25.65;;;13.52;;
27313;SDS011;14800;48.174;9.798;2022-12-17T04:40:25;27.40;;;13.75;;
27313;SDS011;14800;48.174;9.798;2022-12-17T04:43:10;25.65;;;14.23;;
27313;SDS011;14800;48.174;9.798;2022-12-17T04:45:56;28.60;;;14.40;;
27313;SDS011;14800;48.174;9.798;2022-12-17T04:48:41;27.30;;;13.82;;
27313;SDS011;14800;48.174;9.798;2022-12-17T04:51:25;25.20;;;12.88;;
27313;SDS011;14800;48.174;9.798;2022-12-17T04:54:10;23.98;;;12.48;;
27313;SDS011;14800;48.174;9.798;2022-12-17T04:56:58;23.30;;;12.82;;
27313;SDS011;14800;48.174;9.798;2022-12-17T04:59:42;25.25;;;12.50;;
27313;SDS011;14800;48.174;9.798;2022-12-17T05:02:27;24.40;;;12.52;;
27313;SDS011;14800;48.174;9.798;2022-12-17T05:05:11;23.50;;;12.38;;
27313;SDS011;14800;48.174;9.798;2022-12-17T05:07:56;21.73;;;11.98;;
27313;SDS011;14800;48.174;9.798;2022-12-17T05:10:40;22.75;;;12.30;;
27313;SDS011;14800;48.174;9.798;2022-12-17T05:13:25;45.95;;;20.52;;
27313;SDS011;14800;48.174;9.798;2022-12-17T05:16:09;27.60;;;13.77;;
27313;SDS011;14800;48.174;9.798;2022-12-17T05:18:53;28.48;;;13.00;;
27313;SDS011;14800;48.174;9.798;2022-12-17T05:21:38;27.08;;;13.18;;
27313;SDS011;14800;48.174;9.798;2022-12-17T05:24:22;25.15;;;13.60;;
27313;SDS011;14800;48.174;9.798;2022-12-17T05:27:06;22.90;;;12.70;;
27313;SDS011;14800;48.174;9.798;2022-12-17T05:29:50;25.95;;;12.80;;
27313;SDS011;14800;48.174;9.798;2022-12-17T05:32:35;21.42;;;12.75;;
27313;SDS011;14800;48.174;9.798;2022-12-17T05:35:19;26.15;;;13.60;;
27313;SDS011;14800;48.174;9.798;2022-12-17T05:38:07;26.05;;;13.65;;
27313;SDS011;14800;48.174;9.798;2022-12-17T05:40:54;24.83;;;13.52;;
27313;SDS011;14800;48.174;9.798;2022-12-17T05:43:40;25.95;;;14.32;;
27313;SDS011;14800;48.174;9.798;2022-12-17T05:46:24;28.27;;;13.70;;
27313;SDS011;14800;48.174;9.798;2022-12-17T05:49:09;26.48;;;13.95;;
27313;SDS011;14800;48.174;9.798;2022-12-17T05:51:53;28.85;;;13.50;;
27313;SDS011;14800;48.174;9.798;2022-12-17T05:54:37;29.90;;;14.95;;
27313;SDS011;14800;48.174;9.798;2022-12-17T05:57:21;27.42;;;14.18;;
27313;SDS011;14800;48.174;9.798;2022-12-17T06:00:06;25.83;;;14.35;;
27313;SDS011;14800;48.174;9.798;2022-12-17T06:02:58;24.85;;;13.55;;
27313;SDS011;14800;48.174;9.798;2022-12-17T06:05:42;25.50;;;13.88;;
27313;SDS011;14800;48.174;9.798;2022-12-17T06:08:27;31.83;;;14.65;;
27313;SDS011;14800;48.174;9.798;2022-12-17T06:11:11;31.42;;;15.27;;
27313;SDS011;14800;48.174;9.798;2022-12-17T06:13:57;28.05;;;14.20;;
27313;SDS011;14800;48.174;9.798;2022-12-17T06:16:41;26.35;;;14.68;;
27313;SDS011;14800;48.174;9.798;2022-12-17T06:19:25;28.88;;;15.35;;
27313;SDS011;14800;48.174;9.798;2022-12-17T06:22:10;34.97;;;15.25;;
27313;SDS011;14800;48.174;9.798;2022-12-17T06:24:54;27.30;;;15.20;;
27313;SDS011;14800;48.174;9.798;2022-12-17T06:27:38;26.77;;;14.93;;
27313;SDS011;14800;48.174;9.798;2022-12-17T06:30:22;33.00;;;16.38;;
27313;SDS011;14800;48.174;9.798;2022-12-17T06:38:36;30.40;;;15.52;;
27313;SDS011;14800;48.174;9.798;2022-12-17T06:41:20;28.77;;;15.93;;
27313;SDS011;14800;48.174;9.798;2022-12-17T06:44:05;35.83;;;17.58;;
27313;SDS011;14800;48.174;9.798;2022-12-17T06:46:49;38.00;;;17.95;;
27313;SDS011;14800;48.174;9.798;2022-12-17T06:49:33;33.55;;;16.00;;
27313;SDS011;14800;48.174;9.798;2022-12-17T06:52:17;28.55;;;14.77;;
27313;SDS011;14800;48.174;9.798;2022-12-17T06:55:02;31.08;;;15.65;;
27313;SDS011;14800;48.174;9.798;2022-12-17T06:57:46;32.22;;;16.25;;
27313;SDS011;14800;48.174;9.798;2022-12-17T07:00:30;79.30;;;29.92;;
27313;SDS011;14800;48.174;9.798;2022-12-17T07:03:14;52.88;;;23.40;;
27313;SDS011;14800;48.174;9.798;2022-12-17T07:05:59;61.67;;;22.30;;
27313;SDS011;14800;48.174;9.798;2022-12-17T07:08:44;128.82;;;25.30;;
27313;SDS011;14800;48.174;9.798;2022-12-17T07:11:28;49.97;;;23.02;;
27313;SDS011;14800;48.174;9.798;2022-12-17T07:14:12;48.25;;;20.40;;
27313;SDS011;14800;48.174;9.798;2022-12-17T07:16:57;38.38;;;18.77;;
27313;SDS011;14800;48.174;9.798;2022-12-17T07:19:41;37.13;;;18.80;;
27313;SDS011;14800;48.174;9.798;2022-12-17T07:22:25;39.38;;;17.48;;
27313;SDS011;14800;48.174;9.798;2022-12-17T07:25:09;43.33;;;19.75;;
27313;SDS011;14800;48.174;9.798;2022-12-17T07:30:39;39.67;;;19.35;;
27313;SDS011;14800;48.174;9.798;2022-12-17T07:33:23;38.58;;;18.75;;
27313;SDS011;14800;48.174;9.798;2022-12-17T07:36:08;38.08;;;20.33;;
27313;SDS011;14800;48.174;9.798;2022-12-17T07:38:52;36.20;;;18.17;;
27313;SDS011;14800;48.174;9.798;2022-12-17T07:41:36;51.95;;;25.38;;
27313;SDS011;14800;48.174;9.798;2022-12-17T07:44:20;45.80;;;23.85;;
27313;SDS011;14800;48.174;9.798;2022-12-17T07:49:49;39.97;;;20.55;;
27313;SDS011;14800;48.174;9.798;2022-12-17T07:52:33;68.57;;;26.60;;
27313;SDS011;14800;48.174;9.798;2022-12-17T07:55:17;81.30;;;30.27;;
27313;SDS011;14800;48.174;9.798;2022-12-17T07:58:05;82.85;;;31.33;;
27313;SDS011;14800;48.174;9.798;2022-12-17T08:00:51;72.18;;;29.38;;
27313;SDS011;14800;48.174;9.798;2022-12-17T08:03:35;74.93;;;28.83;;
27313;SDS011;14800;48.174;9.798;2022-12-17T08:09:04;66.50;;;27.50;;
27313;SDS011;14800;48.174;9.798;2022-12-17T08:11:48;64.78;;;26.70;;
27313;SDS011;14800;48.174;9.798;2022-12-17T08:14:32;65.72;;;28.55;;
27313;SDS011;14800;48.174;9.798;2022-12-17T08:17:16;66.18;;;29.75;;
27313;SDS011;14800;48.174;9.798;2022-12-17T08:20:01;56.70;;;28.20;;
27313;SDS011;14800;48.174;9.798;2022-12-17T08:22:45;58.20;;;28.02;;
27313;SDS011;14800;48.174;9.798;2022-12-17T08:25:29;79.90;;;37.17;;
27313;SDS011;14800;48.174;9.798;2022-12-17T08:28:13;71.97;;;33.35;;
27313;SDS011;14800;48.174;9.798;2022-12-17T08:30:58;56.90;;;28.88;;
27313;SDS011;14800;48.174;9.798;2022-12-17T08:33:42;45.95;;;25.45;;
27313;SDS011;14800;48.174;9.798;2022-12-17T08:36:26;44.22;;;24.30;;
27313;SDS011;14800;48.174;9.798;2022-12-17T08:39:10;51.35;;;24.92;;
27313;SDS011;14800;48.174;9.798;2022-12-17T08:41:54;97.35;;;36.42;;
27313;SDS011;14800;48.174;9.798;2022-12-17T08:44:39;54.10;;;27.05;;
27313;SDS011;14800;48.174;9.798;2022-12-17T08:47:23;53.10;;;25.48;;
27313;SDS011;14800;48.174;9.798;2022-12-17T08:50:07;50.90;;;25.77;;
27313;SDS011;14800;48.174;9.798;2022-12-17T08:52:59;52.63;;;27.08;;
27313;SDS011;14800;48.174;9.798;2022-12-17T08:55:44;63.58;;;31.58;;
27313;SDS011;14800;48.174;9.798;2022-12-17T08:58:28;59.55;;;30.00;;
27313;SDS011;14800;48.174;9.798;2022-12-17T09:01:12;58.45;;;30.15;;
27313;SDS011;14800;48.174;9.798;2022-12-17T09:06:41;72.70;;;33.30;;
27313;SDS011;14800;48.174;9.798;2022-12-17T09:09:25;72.38;;;34.58;;
27313;SDS011;14800;48.174;9.798;2022-12-17T09:12:09;66.82;;;34.03;;
27313;SDS011;14800;48.174;9.798;2022-12-17T09:14:54;77.53;;;34.92;;
27313;SDS011;14800;48.174;9.798;2022-12-17T09:17:38;75.60;;;34.65;;
27313;SDS011;14800;48.174;9.798;2022-12-17T09:20:22;70.38;;;31.55;;
27313;SDS011;14800;48.174;9.798;2022-12-17T09:25:52;68.47;;;23.10;;
27313;SDS011;14800;48.174;9.798;2022-12-17T09:28:40;75.30;;;21.27;;
27313;SDS011;14800;48.174;9.798;2022-12-17T09:34:08;168.82;;;27.10;;
27313;SDS011;14800;48.174;9.798;2022-12-17T09:36:52;64.32;;;26.20;;
27313;SDS011;14800;48.174;9.798;2022-12-17T09:39:36;92.32;;;32.22;;
27313;SDS011;14800;48.174;9.798;2022-12-17T09:42:22;76.80;;;33.25;;
27313;SDS011;14800;48.174;9.798;2022-12-17T09:45:19;106.35;;;33.20;;
27313;SDS011;14800;48.174;9.798;2022-12-17T09:51:22;100.50;;;25.52;;
27313;SDS011;14800;48.174;9.798;2022-12-17T09:54:10;138.20;;;27.30;;
27313;SDS011;14800;48.174;9.798;2022-12-17T09:57:16;103.15;;;26.80;;
27313;SDS011;14800;48.174;9.798;2022-12-17T10:03:10;155.60;;;28.67;;
27313;SDS011;14800;48.174;9.798;2022-12-17T10:05:57;82.95;;;26.33;;
27313;SDS011;14800;48.174;9.798;2022-12-17T10:08:47;95.75;;;27.27;;
27313;SDS011;14800;48.174;9.798;2022-12-17T10:11:36;83.55;;;26.00;;
27313;SDS011;14800;48.174;9.798;2022-12-17T10:14:21;89.82;;;24.88;;
27313;SDS011;14800;48.174;9.798;2022-12-17T10:17:19;88.38;;;25.75;;
27313;SDS011;14800;48.174;9.798;2022-12-17T10:20:22;67.43;;;24.05;;
27313;SDS011;14800;48.174;9.798;2022-12-17T10:23:09;69.95;;;24.35;;
27313;SDS011;14800;48.174;9.798;2022-12-17T10:25:54;120.50;;;25.88;;
27313;SDS011;14800;48.174;9.798;2022-12-17T10:28:39;106.43;;;25.23;;
27313;SDS011;14800;48.174;9.798;2022-12-17T10:31:28;84.43;;;24.92;;
27313;SDS011;14800;48.174;9.798;2022-12-17T10:34:22;110.55;;;25.88;;
27313;SDS011;14800;48.174;9.798;2022-12-17T10:37:13;155.68;;;27.02;;
27313;SDS011;14800;48.174;9.798;2022-12-17T10:40:01;134.90;;;26.15;;
27313;SDS011;14800;48.174;9.798;2022-12-17T10:42:57;113.10;;;25.63;;
27313;SDS011;14800;48.174;9.798;2022-12-17T10:45:52;75.88;;;23.70;;
27313;SDS011;14800;48.174;9.798;2022-12-17T10:48:38;124.35;;;27.38;;
27313;SDS011;14800;48.174;9.798;2022-12-17T10:51:24;113.05;;;26.40;;
27313;SDS011;14800;48.174;9.798;2022-12-17T10:54:23;107.32;;;27.48;;
27313;SDS011;14800;48.174;9.798;2022-12-17T10:57:18;133.43;;;28.30;;
27313;SDS011;14800;48.174;9.798;2022-12-17T11:03:24;123.77;;;28.47;;
27313;SDS011;14800;48.174;9.798;2022-12-17T11:06:14;90.35;;;28.55;;
27313;SDS011;14800;48.174;9.798;2022-12-17T11:09:23;104.20;;;28.17;;
27313;SDS011;14800;48.174;9.798;2022-12-17T11:12:25;78.20;;;27.45;;
27313;SDS011;14800;48.174;9.798;2022-12-17T11:21:28;86.20;;;29.77;;
27313;SDS011;14800;48.174;9.798;2022-12-17T11:24:17;98.70;;;29.20;;
27313;SDS011;14800;48.174;9.798;2022-12-17T11:27:23;99.82;;;29.48;;
27313;SDS011;14800;48.174;9.798;2022-12-17T11:30:14;111.63;;;31.52;;
27313;SDS011;14800;48.174;9.798;2022-12-17T11:33:02;115.78;;;31.80;;
27313;SDS011;14800;48.174;9.798;2022-12-17T11:36:14;76.55;;;29.88;;
27313;SDS011;14800;48.174;9.798;2022-12-17T11:39:16;92.80;;;30.63;;
27313;SDS011;14800;48.174;9.798;2022-12-17T11:42:13;72.72;;;27.50;;
27313;SDS011;14800;48.174;9.798;2022-12-17T11:45:18;70.05;;;29.80;;
27313;SDS011;14800;48.174;9.798;2022-12-17T11:48:54;70.32;;;29.10;;
27313;SDS011;14800;48.174;9.798;2022-12-17T11:58:06;70.72;;;31.08;;
27313;SDS011;14800;48.174;9.798;2022-12-17T12:01:03;61.78;;;28.75;;
27313;SDS011;14800;48.174;9.798;2022-12-17T12:04:04;61.63;;;27.85;;
27313;SDS011;14800;48.174;9.798;2022-12-17T12:10:16;64.15;;;29.45;;
27313;SDS011;14800;48.174;9.798;2022-12-17T12:13:08;66.40;;;30.10;;
27313;SDS011;14800;48.174;9.798;2022-12-17T12:22:19;65.10;;;31.20;;
27313;SDS011;14800;48.174;9.798;2022-12-17T12:25:27;67.28;;;31.25;;
27313;SDS011;14800;48.174;9.798;2022-12-17T12:28:54;74.97;;;34.67;;
27313;SDS011;14800;48.174;9.798;2022-12-17T12:32:02;71.00;;;32.92;;
27313;SDS011;14800;48.174;9.798;2022-12-17T12:34:56;72.32;;;33.28;;
27313;SDS011;14800;48.174;9.798;2022-12-17T12:37:43;75.22;;;34.55;;
27313;SDS011;14800;48.174;9.798;2022-12-17T12:52:13;65.85;;;31.27;;
27313;SDS011;14800;48.174;9.798;2022-12-17T12:55:02;65.97;;;30.17;;
27313;SDS011;14800;48.174;9.798;2022-12-17T12:58:19;66.03;;;29.77;;
27313;SDS011;14800;48.174;9.798;2022-12-17T13:01:16;60.80;;;28.60;;
27313;SDS011;14800;48.174;9.798;2022-12-17T13:04:06;62.20;;;28.48;;
27313;SDS011;14800;48.174;9.798;2022-12-17T13:07:22;65.95;;;30.35;;
27313;SDS011;14800;48.174;9.798;2022-12-17T13:09:51;63.95;;;29.45;;
27313;SDS011;14800;48.174;9.798;2022-12-17T13:15:15;67.10;;;30.98;;
27313;SDS011;14800;48.174;9.798;2022-12-17T13:18:22;65.38;;;29.17;;
27313;SDS011;14800;48.174;9.798;2022-12-17T13:23:28;86.45;;;39.25;;
27313;SDS011;14800;48.174;9.798;2022-12-17T13:26:03;79.18;;;38.28;;
27313;SDS011;14800;48.174;9.798;2022-12-17T13:28:41;75.93;;;34.47;;
27313;SDS011;14800;48.174;9.798;2022-12-17T13:31:24;73.85;;;34.50;;
27313;SDS011;14800;48.174;9.798;2022-12-17T13:39:27;65.07;;;31.25;;
27313;SDS011;14800;48.174;9.798;2022-12-17T13:41:55;61.75;;;28.88;;
27313;SDS011;14800;48.174;9.798;2022-12-17T13:44:25;59.80;;;28.63;;
27313;SDS011;14800;48.174;9.798;2022-12-17T13:46:55;66.07;;;29.33;;
27313;SDS011;14800;48.174;9.798;2022-12-17T13:49:28;95.15;;;41.38;;
27313;SDS011;14800;48.174;9.798;2022-12-17T13:54:29;57.08;;;28.67;;
27313;SDS011;14800;48.174;9.798;2022-12-17T13:57:05;56.30;;;27.83;;
27313;SDS011;14800;48.174;9.798;2022-12-17T13:59:34;55.08;;;28.55;;
27313;SDS011;14800;48.174;9.798;2022-12-17T14:02:00;54.83;;;27.70;;
27313;SDS011;14800;48.174;9.798;2022-12-17T14:04:29;58.17;;;26.63;;
27313;SDS011;14800;48.174;9.798;2022-12-17T14:06:57;55.65;;;27.30;;
27313;SDS011;14800;48.174;9.798;2022-12-17T14:09:29;58.30;;;27.95;;
27313;SDS011;14800;48.174;9.798;2022-12-17T14:11:59;56.63;;;27.95;;
27313;SDS011;14800;48.174;9.798;2022-12-17T14:14:47;54.63;;;27.65;;
27313;SDS011;14800;48.174;9.798;2022-12-17T14:17:41;58.67;;;29.13;;
27313;SDS011;14800;48.174;9.798;2022-12-17T14:20:14;57.38;;;28.40;;
27313;SDS011;14800;48.174;9.798;2022-12-17T14:22:41;57.70;;;28.75;;
27313;SDS011;14800;48.174;9.798;2022-12-17T14:25:22;63.00;;;29.20;;
27313;SDS011;14800;48.174;9.798;2022-12-17T14:27:54;59.45;;;28.73;;
27313;SDS011;14800;48.174;9.798;2022-12-17T14:33:00;55.58;;;27.95;;
27313;SDS011;14800;48.174;9.798;2022-12-17T14:35:27;59.28;;;30.05;;
27313;SDS011;14800;48.174;9.798;2022-12-17T14:37:55;62.65;;;30.15;;
27313;SDS011;14800;48.174;9.798;2022-12-17T14:40:21;67.15;;;30.95;;
27313;SDS011;14800;48.174;9.798;2022-12-17T14:42:49;60.40;;;29.88;;
27313;SDS011;14800;48.174;9.798;2022-12-17T14:47:53;61.80;;;30.75;;
27313;SDS011;14800;48.174;9.798;2022-12-17T14:52:50;61.08;;;30.60;;
27313;SDS011;14800;48.174;9.798;2022-12-17T14:57:52;65.13;;;31.45;;
27313;SDS011;14800;48.174;9.798;2022-12-17T15:00:30;62.28;;;31.00;;
27313;SDS011;14800;48.174;9.798;2022-12-17T15:02:55;61.63;;;30.35;;
27313;SDS011;14800;48.174;9.798;2022-12-17T15:05:21;66.35;;;30.80;;
27313;SDS011;14800;48.174;9.798;2022-12-17T15:07:47;69.13;;;32.92;;
27313;SDS011;14800;48.174;9.798;2022-12-17T15:10:13;62.22;;;30.98;;
27313;SDS011;14800;48.174;9.798;2022-12-17T15:12:44;63.75;;;31.73;;
27313;SDS011;14800;48.174;9.798;2022-12-17T15:15:11;65.32;;;31.35;;
27313;SDS011;14800;48.174;9.798;2022-12-17T15:17:40;58.08;;;28.13;;
27313;SDS011;14800;48.174;9.798;2022-12-17T15:20:06;69.68;;;30.40;;
27313;SDS011;14800;48.174;9.798;2022-12-17T15:22:40;70.55;;;31.13;;
27313;SDS011;14800;48.174;9.798;2022-12-17T15:25:09;60.13;;;29.33;;
27313;SDS011;14800;48.174;9.798;2022-12-17T15:27:37;67.32;;;31.80;;
27313;SDS011;14800;48.174;9.798;2022-12-17T15:30:02;61.60;;;30.02;;
27313;SDS011;14800;48.174;9.798;2022-12-17T15:32:28;62.90;;;30.58;;
27313;SDS011;14800;48.174;9.798;2022-12-17T15:34:54;63.38;;;29.42;;
27313;SDS011;14800;48.174;9.798;2022-12-17T15:37:19;65.28;;;29.92;;
27313;SDS011;14800;48.174;9.798;2022-12-17T15:39:45;65.32;;;30.38;;
27313;SDS011;14800;48.174;9.798;2022-12-17T15:42:11;66.50;;;33.08;;
27313;SDS011;14800;48.174;9.798;2022-12-17T15:44:55;75.60;;;34.55;;
27313;SDS011;14800;48.174;9.798;2022-12-17T15:47:20;71.75;;;33.85;;
27313;SDS011;14800;48.174;9.798;2022-12-17T15:49:46;77.05;;;35.75;;
27313;SDS011;14800;48.174;9.798;2022-12-17T15:52:11;82.75;;;38.55;;
27313;SDS011;14800;48.174;9.798;2022-12-17T15:54:40;103.88;;;43.85;;
27313;SDS011;14800;48.174;9.798;2022-12-17T15:57:06;99.00;;;42.58;;
27313;SDS011;14800;48.174;9.798;2022-12-17T15:59:32;94.85;;;42.70;;
27313;SDS011;14800;48.174;9.798;2022-12-17T16:01:58;99.90;;;42.75;;
27313;SDS011;14800;48.174;9.798;2022-12-17T16:04:24;88.25;;;41.13;;
27313;SDS011;14800;48.174;9.798;2022-12-17T16:06:52;84.00;;;39.15;;
27313;SDS011;14800;48.174;9.798;2022-12-17T16:09:17;80.13;;;39.15;;
27313;SDS011;14800;48.174;9.798;2022-12-17T16:11:43;89.97;;;41.08;;
27313;SDS011;14800;48.174;9.798;2022-12-17T16:14:09;80.47;;;37.20;;
27313;SDS011;14800;48.174;9.798;2022-12-17T16:16:34;78.53;;;35.83;;
27313;SDS011;14800;48.174;9.798;2022-12-17T16:19:00;74.97;;;36.35;;
27313;SDS011;14800;48.174;9.798;2022-12-17T16:21:26;74.03;;;36.05;;
27313;SDS011;14800;48.174;9.798;2022-12-17T16:23:52;101.47;;;45.00;;
27313;SDS011;14800;48.174;9.798;2022-12-17T16:26:18;95.78;;;43.88;;
27313;SDS011;14800;48.174;9.798;2022-12-17T16:28:43;90.20;;;42.22;;
27313;SDS011;14800;48.174;9.798;2022-12-17T16:31:10;88.30;;;42.28;;
27313;SDS011;14800;48.174;9.798;2022-12-17T16:33:40;83.53;;;40.70;;
27313;SDS011;14800;48.174;9.798;2022-12-17T16:36:09;82.50;;;38.70;;
27313;SDS011;14800;48.174;9.798;2022-12-17T16:38:41;82.50;;;39.20;;
27313;SDS011;14800;48.174;9.798;2022-12-17T16:41:08;84.03;;;39.28;;
27313;SDS011;14800;48.174;9.798;2022-12-17T16:43:34;83.85;;;40.70;;
27313;SDS011;14800;48.174;9.798;2022-12-17T16:46:00;85.85;;;41.63;;
27313;SDS011;14800;48.174;9.798;2022-12-17T16:48:26;91.00;;;41.85;;
27313;SDS011;14800;48.174;9.798;2022-12-17T16:50:51;86.05;;;42.40;;
27313;SDS011;14800;48.174;9.798;2022-12-17T16:53:17;89.82;;;42.90;;
27313;SDS011;14800;48.174;9.798;2022-12-17T16:55:44;92.45;;;44.42;;
27313;SDS011;14800;48.174;9.798;2022-12-17T16:58:12;96.95;;;44.25;;
27313;SDS011;14800;48.174;9.798;2022-12-17T17:00:40;88.75;;;42.65;;
27313;SDS011;14800;48.174;9.798;2022-12-17T17:03:06;92.90;;;43.17;;
27313;SDS011;14800;48.174;9.798;2022-12-17T17:05:33;87.57;;;40.53;;
27313;SDS011;14800;48.174;9.798;2022-12-17T17:08:01;94.13;;;42.05;;
27313;SDS011;14800;48.174;9.798;2022-12-17T17:10:27;92.63;;;42.67;;
27313;SDS011;14800;48.174;9.798;2022-12-17T17:12:53;99.40;;;44.80;;
27313;SDS011;14800;48.174;9.798;2022-12-17T17:15:19;95.78;;;43.75;;
27313;SDS011;14800;48.174;9.798;2022-12-17T17:17:46;96.80;;;44.25;;
27313;SDS011;14800;48.174;9.798;2022-12-17T17:20:12;97.13;;;42.60;;
27313;SDS011;14800;48.174;9.798;2022-12-17T17:22:38;94.88;;;43.72;;
27313;SDS011;14800;48.174;9.798;2022-12-17T17:25:04;93.82;;;43.53;;
27313;SDS011;14800;48.174;9.798;2022-12-17T17:27:33;78.22;;;37.92;;
27313;SDS011;14800;48.174;9.798;2022-12-17T17:30:01;68.97;;;33.75;;
27313;SDS011;14800;48.174;9.798;2022-12-17T17:32:27;84.03;;;35.47;;
27313;SDS011;14800;48.174;9.798;2022-12-17T17:34:53;84.40;;;35.97;;
27313;SDS011;14800;48.174;9.798;2022-12-17T17:37:18;73.22;;;33.25;;
27313;SDS011;14800;48.174;9.798;2022-12-17T17:39:44;74.15;;;34.55;;
27313;SDS011;14800;48.174;9.798;2022-12-17T17:42:10;76.82;;;33.67;;